createdAt,value
2022-12-23T00:00:57.604Z,89.94
2022-12-23T00:03:25.796Z,90.67
2022-12-23T00:05:53.931Z,88.89
2022-12-23T00:08:22.444Z,88.71
2022-12-23T00:10:51.305Z,89.00
2022-12-23T00:13:37.398Z,89.59
2022-12-23T00:16:08.719Z,89.35
2022-12-23T00:18:37.355Z,90.25
2022-12-23T00:21:09.089Z,89.15
2022-12-23T00:23:39.182Z,89.93
2022-12-23T00:26:07.644Z,89.70
2022-12-23T00:28:35.401Z,90.15
2022-12-23T00:31:06.832Z,90.23
2022-12-23T00:33:36.382Z,89.44
2022-12-23T00:36:13.087Z,89.51
2022-12-23T00:38:58.651Z,89.26
2022-12-23T00:41:44.022Z,89.72
2022-12-23T00:44:12.129Z,90.78
2022-12-23T00:46:41.297Z,90.78
2022-12-23T00:49:26.621Z,89.56
2022-12-23T00:51:54.325Z,90.04
2022-12-23T00:54:22.088Z,89.98
2022-12-23T00:56:49.907Z,91.33
2022-12-23T00:59:17.634Z,91.66
2022-12-23T01:02:04.464Z,91.01
2022-12-23T01:04:50.079Z,91.50
2022-12-23T01:07:17.946Z,90.83
2022-12-23T01:09:45.966Z,91.56
2022-12-23T01:12:15.080Z,91.35
2022-12-23T01:14:42.931Z,91.33
2022-12-23T01:17:12.416Z,91.26
2022-12-23T01:19:40.683Z,91.04
2022-12-23T01:22:08.400Z,90.84
2022-12-23T01:24:36.160Z,91.67
2022-12-23T01:27:03.976Z,90.28
2022-12-23T01:29:31.871Z,90.07
2022-12-23T01:31:59.678Z,90.26
2022-12-23T01:34:36.112Z,90.31
2022-12-23T01:37:05.789Z,91.40
2022-12-23T01:39:33.862Z,90.98
2022-12-23T01:42:19.169Z,90.90
2022-12-23T01:44:57.590Z,91.04
2022-12-23T01:47:31.747Z,89.88
2022-12-23T01:50:07.218Z,89.71
2022-12-23T01:52:39.941Z,90.37
2022-12-23T01:55:09.057Z,90.61
2022-12-23T01:57:40.303Z,91.56
2022-12-23T02:00:27.204Z,91.57
2022-12-23T02:03:12.404Z,91.45
2022-12-23T02:05:43.019Z,92.15
2022-12-23T02:08:28.839Z,91.03
2022-12-23T02:11:16.413Z,91.55
2022-12-23T02:14:12.321Z,91.60
2022-12-23T02:16:48.505Z,92.05
2022-12-23T02:19:23.916Z,91.15
2022-12-23T02:22:23.786Z,91.43
2022-12-23T02:25:27.302Z,91.33
2022-12-23T02:28:14.009Z,92.06
2022-12-23T02:30:47.118Z,92.59
2022-12-23T02:33:41.080Z,92.45
2022-12-23T02:36:21.482Z,93.04
2022-12-23T02:38:59.840Z,92.34
2022-12-23T02:41:36.614Z,91.81
2022-12-23T02:44:11.547Z,91.89
2022-12-23T02:46:47.231Z,91.23
2022-12-23T02:49:21.457Z,92.34
2022-12-23T02:51:54.042Z,92.32
2022-12-23T02:54:27.996Z,92.19
2022-12-23T02:56:57.831Z,91.73
2022-12-23T02:59:29.081Z,91.73
2022-12-23T03:01:59.682Z,91.27
2022-12-23T03:04:27.771Z,91.02
2022-12-23T03:06:57.044Z,92.34
2022-12-23T03:09:35.992Z,92.64
2022-12-23T03:12:11.410Z,91.47
2022-12-23T03:14:57.380Z,91.70
2022-12-23T03:17:43.175Z,92.32
2022-12-23T03:20:22.032Z,91.98
2022-12-23T03:22:55.425Z,91.88
2022-12-23T03:25:27.764Z,92.74
2022-12-23T03:28:03.527Z,92.25
2022-12-23T03:30:34.947Z,94.97
2022-12-23T03:33:08.371Z,94.19
2022-12-23T03:35:41.046Z,93.50
2022-12-23T03:38:11.192Z,92.12
2022-12-23T03:40:42.602Z,92.87
2022-12-23T03:43:14.088Z,91.61
2022-12-23T03:45:49.415Z,92.05
2022-12-23T03:48:23.836Z,91.72
2022-12-23T03:50:56.886Z,92.25
2022-12-23T03:53:31.106Z,92.17
2022-12-23T03:56:04.033Z,91.92
2022-12-23T03:58:37.936Z,91.35
2022-12-23T04:01:13.779Z,92.00
2022-12-23T04:03:53.007Z,92.28
2022-12-23T04:06:22.781Z,92.76
2022-12-23T04:08:51.705Z,92.70
2022-12-23T04:11:19.497Z,92.76
2022-12-23T04:13:49.032Z,92.91
2022-12-23T04:16:17.064Z,92.43
2022-12-23T04:18:46.217Z,92.51
2022-12-23T04:21:13.910Z,92.30
2022-12-23T04:23:41.587Z,92.80
2022-12-23T04:26:09.343Z,92.39
2022-12-23T04:28:37.030Z,92.71
2022-12-23T04:31:05.018Z,92.72
2022-12-23T04:33:32.683Z,92.63
2022-12-23T04:36:02.107Z,91.75
2022-12-23T04:38:29.760Z,91.58
2022-12-23T04:40:57.464Z,92.11
2022-12-23T04:43:25.145Z,93.11
2022-12-23T04:45:53.220Z,92.00
2022-12-23T04:48:20.910Z,92.81
2022-12-23T04:50:48.593Z,92.34
2022-12-23T04:53:17.718Z,92.24
2022-12-23T04:55:45.375Z,92.20
2022-12-23T04:58:13.096Z,92.57
2022-12-23T05:00:40.855Z,91.35
2022-12-23T05:03:08.942Z,92.02
2022-12-23T05:05:36.808Z,92.44
2022-12-23T05:08:05.475Z,92.33
2022-12-23T05:10:34.544Z,92.91
2022-12-23T05:13:02.322Z,93.19
2022-12-23T05:15:33.083Z,93.27
2022-12-23T05:18:00.905Z,93.28
2022-12-23T05:20:28.729Z,93.10
2022-12-23T05:22:56.438Z,92.44
2022-12-23T05:25:24.100Z,92.63
2022-12-23T05:27:53.246Z,92.47
2022-12-23T05:30:21.204Z,92.22
2022-12-23T05:32:48.883Z,92.03
2022-12-23T05:35:16.856Z,92.34
2022-12-23T05:37:44.584Z,92.74
2022-12-23T05:40:15.015Z,94.05
2022-12-23T05:42:47.673Z,94.42
2022-12-23T05:45:16.964Z,93.27
2022-12-23T05:47:44.711Z,92.95
2022-12-23T05:50:12.967Z,93.15
2022-12-23T05:52:40.969Z,93.19
2022-12-23T05:55:10.028Z,92.80
2022-12-23T05:57:37.799Z,93.21
2022-12-23T06:00:06.510Z,93.14
2022-12-23T06:02:35.752Z,94.13
2022-12-23T06:05:03.625Z,93.49
2022-12-23T06:07:31.316Z,93.37
2022-12-23T06:09:59.005Z,92.90
2022-12-23T06:12:26.689Z,92.85
2022-12-23T06:14:54.355Z,92.63
2022-12-23T06:17:22.066Z,92.79
2022-12-23T06:19:51.233Z,92.53
2022-12-23T06:22:21.072Z,92.71
2022-12-23T06:24:49.349Z,92.69
2022-12-23T06:27:17.177Z,93.29
2022-12-23T06:29:45.017Z,93.85
2022-12-23T06:32:13.099Z,93.66
2022-12-23T06:34:40.903Z,94.87
2022-12-23T06:37:09.978Z,94.78
2022-12-23T06:39:37.695Z,94.91
2022-12-23T06:42:05.478Z,95.74
2022-12-23T06:44:33.218Z,93.82
2022-12-23T06:47:00.954Z,93.92
2022-12-23T06:49:28.673Z,92.55
2022-12-23T06:51:56.441Z,92.26
2022-12-23T06:54:25.545Z,92.13
2022-12-23T06:56:53.313Z,92.75
2022-12-23T06:59:20.980Z,92.20
2022-12-23T07:01:48.787Z,92.18
2022-12-23T07:04:16.517Z,91.94
2022-12-23T07:06:44.258Z,92.36
2022-12-23T07:09:12.437Z,92.39
2022-12-23T07:11:41.577Z,93.68
2022-12-23T07:14:09.493Z,93.21
2022-12-23T07:16:37.382Z,93.22
2022-12-23T07:19:05.343Z,92.87
2022-12-23T07:21:34.411Z,92.86
2022-12-23T07:24:02.097Z,93.57
2022-12-23T07:26:29.872Z,92.40
2022-12-23T07:28:59.039Z,91.91
2022-12-23T07:31:26.870Z,93.19
2022-12-23T07:33:54.812Z,92.79
2022-12-23T07:36:22.622Z,93.09
2022-12-23T07:38:51.258Z,92.47
2022-12-23T07:41:19.067Z,93.12
2022-12-23T07:43:46.822Z,92.52
2022-12-23T07:46:15.933Z,93.04
2022-12-23T07:48:43.803Z,92.78
2022-12-23T07:51:11.469Z,92.50
2022-12-23T07:53:39.190Z,92.10
2022-12-23T07:56:07.577Z,92.05
2022-12-23T07:58:35.331Z,92.12
2022-12-23T08:01:04.749Z,91.47
2022-12-23T08:03:33.921Z,91.71
2022-12-23T08:06:03.539Z,91.27
2022-12-23T08:08:31.481Z,91.44
2022-12-23T08:11:00.736Z,91.45
2022-12-23T08:13:28.747Z,91.46
2022-12-23T08:15:57.858Z,91.45
2022-12-23T08:18:26.271Z,92.06
2022-12-23T08:20:59.860Z,92.70
2022-12-23T08:23:29.287Z,92.28
2022-12-23T08:26:01.757Z,91.95
2022-12-23T08:28:30.076Z,92.33
2022-12-23T08:31:05.167Z,92.70
2022-12-23T08:33:33.787Z,93.89
2022-12-23T08:36:02.881Z,92.12
2022-12-23T08:38:30.578Z,92.18
2022-12-23T08:40:58.308Z,92.64
2022-12-23T08:43:31.820Z,93.54
2022-12-23T08:46:03.187Z,92.56
2022-12-23T08:48:31.106Z,92.42
2022-12-23T08:50:58.853Z,93.11
2022-12-23T08:53:27.893Z,93.64
2022-12-23T08:55:55.543Z,93.97
2022-12-23T08:58:23.206Z,94.70
2022-12-23T09:00:50.968Z,96.00
2022-12-23T09:03:18.747Z,94.75
2022-12-23T09:05:46.481Z,94.20
2022-12-23T09:08:14.420Z,93.95
2022-12-23T09:10:44.465Z,95.18
2022-12-23T09:13:17.938Z,96.61
2022-12-23T09:15:50.446Z,96.20
2022-12-23T09:18:18.206Z,97.15
2022-12-23T09:20:46.063Z,93.95
2022-12-23T09:23:13.865Z,93.94
2022-12-23T09:25:41.992Z,94.56
2022-12-23T09:28:13.103Z,93.93
2022-12-23T09:30:40.905Z,93.95
2022-12-23T09:33:09.229Z,94.94
2022-12-23T09:35:37.028Z,94.12
2022-12-23T09:38:07.100Z,93.77
2022-12-23T09:40:37.966Z,94.13
2022-12-23T09:43:16.969Z,95.63
2022-12-23T09:45:56.819Z,94.40
2022-12-23T09:48:27.749Z,93.36
2022-12-23T09:50:56.720Z,92.72
2022-12-23T09:53:29.048Z,92.99
2022-12-23T09:56:03.364Z,92.90
2022-12-23T09:58:44.730Z,92.73
2022-12-23T10:01:20.245Z,91.68
2022-12-23T10:04:05.431Z,92.12
2022-12-23T10:06:35.569Z,93.20
2022-12-23T10:09:07.970Z,92.37
2022-12-23T10:11:39.073Z,92.20
2022-12-23T10:14:15.853Z,91.30
2022-12-23T10:16:46.718Z,91.49
2022-12-23T10:19:19.107Z,91.35
2022-12-23T10:21:49.915Z,91.01
2022-12-23T10:24:22.918Z,91.79
2022-12-23T10:26:54.421Z,92.23
2022-12-23T10:29:25.677Z,91.84
2022-12-23T10:32:07.067Z,94.25
2022-12-23T10:34:46.139Z,93.02
2022-12-23T10:37:22.263Z,92.43
2022-12-23T10:40:01.319Z,92.10
2022-12-23T10:42:35.567Z,91.54
2022-12-23T10:45:40.140Z,91.95
2022-12-23T10:48:23.053Z,91.72
2022-12-23T10:50:59.744Z,92.58
2022-12-23T10:53:37.418Z,92.68
2022-12-23T10:56:06.627Z,96.17
2022-12-23T10:58:38.074Z,93.88
2022-12-23T11:01:16.127Z,94.19
2022-12-23T11:04:00.590Z,94.38
2022-12-23T11:06:34.843Z,93.80
2022-12-23T11:09:06.323Z,94.86
2022-12-23T11:11:57.562Z,94.99
2022-12-23T11:14:34.419Z,93.90
2022-12-23T11:17:04.447Z,93.44
2022-12-23T11:19:32.652Z,92.37
2022-12-23T11:22:02.318Z,93.75
2022-12-23T11:24:35.445Z,92.75
2022-12-23T11:27:08.275Z,91.49
2022-12-23T11:29:38.500Z,92.31
2022-12-23T11:32:18.109Z,91.62
2022-12-23T11:34:47.444Z,91.70
2022-12-23T11:37:26.865Z,91.77
2022-12-23T11:39:54.912Z,91.91
2022-12-23T11:42:28.446Z,91.52
2022-12-23T11:44:59.732Z,91.34
2022-12-23T11:47:34.024Z,91.44
2022-12-23T11:50:05.342Z,91.60
2022-12-23T11:52:34.305Z,91.82
2022-12-23T11:55:03.768Z,92.43
2022-12-23T11:57:39.553Z,92.78
2022-12-23T12:00:18.670Z,91.96
2022-12-23T12:02:50.113Z,91.55
2022-12-23T12:05:22.976Z,93.19
2022-12-23T12:07:52.712Z,93.35
2022-12-23T12:10:23.518Z,90.97
2022-12-23T12:12:55.194Z,90.88
2022-12-23T12:15:32.244Z,91.18
2022-12-23T12:18:04.416Z,91.22
2022-12-23T12:20:36.853Z,90.88
2022-12-23T12:23:10.047Z,90.89
2022-12-23T12:25:43.217Z,91.72
2022-12-23T12:28:15.589Z,92.99
2022-12-23T12:30:50.208Z,94.60
2022-12-23T12:33:25.158Z,93.85
2022-12-23T12:36:04.933Z,92.97
2022-12-23T12:38:35.328Z,92.18
2022-12-23T12:41:12.001Z,91.98
2022-12-23T12:43:44.613Z,91.63
2022-12-23T12:46:31.745Z,92.04
2022-12-23T12:49:06.490Z,90.95
2022-12-23T12:51:41.908Z,89.69
2022-12-23T12:54:20.903Z,90.68
2022-12-23T12:56:51.304Z,90.49
2022-12-23T12:59:23.691Z,92.33
2022-12-23T13:02:06.343Z,92.13
2022-12-23T13:05:20.779Z,91.82
2022-12-23T13:08:01.977Z,91.34
2022-12-23T13:10:40.540Z,91.50
2022-12-23T13:13:23.915Z,91.26
2022-12-23T13:15:59.033Z,90.46
2022-12-23T13:18:36.742Z,91.07
2022-12-23T13:21:13.378Z,90.92
2022-12-23T13:23:48.808Z,90.83
2022-12-23T13:26:27.446Z,90.54
2022-12-23T13:29:06.207Z,92.29
2022-12-23T13:31:48.612Z,90.31
2022-12-23T13:34:33.303Z,91.93
2022-12-23T13:37:17.080Z,93.09
2022-12-23T13:39:57.414Z,91.58
2022-12-23T13:42:31.525Z,91.18
2022-12-23T13:45:00.471Z,91.53
2022-12-23T13:47:45.621Z,91.37
2022-12-23T13:50:20.160Z,93.13
2022-12-23T13:53:08.942Z,95.08
2022-12-23T13:55:52.935Z,96.18
2022-12-23T13:58:22.971Z,95.17
2022-12-23T14:00:58.821Z,94.48
2022-12-23T14:03:33.638Z,94.20
2022-12-23T14:06:20.990Z,94.22
2022-12-23T14:08:51.832Z,94.99
2022-12-23T14:11:25.183Z,96.12
2022-12-23T14:13:58.296Z,96.43
2022-12-23T14:16:39.299Z,95.57
2022-12-23T14:19:31.956Z,96.32
2022-12-23T14:22:12.412Z,97.74
2022-12-23T14:25:17.635Z,97.73
2022-12-23T14:27:57.731Z,98.38
2022-12-23T14:30:35.820Z,99.78
2022-12-23T14:33:06.238Z,99.44
2022-12-23T14:35:54.095Z,100.00
2022-12-23T14:38:27.739Z,100.00
2022-12-23T14:41:37.775Z,100.00
2022-12-23T14:44:21.058Z,99.64
2022-12-23T14:46:59.065Z,98.72
2022-12-23T14:49:47.977Z,97.21
2022-12-23T14:52:44.487Z,96.21
2022-12-23T14:55:45.203Z,96.82
2022-12-23T14:58:51.459Z,94.90
2022-12-23T15:01:22.610Z,95.55
2022-12-23T15:03:57.595Z,95.55
2022-12-23T15:06:34.065Z,95.38
2022-12-23T15:09:03.597Z,94.91
2022-12-23T15:11:34.096Z,94.92
2022-12-23T15:14:09.658Z,95.39
2022-12-23T15:16:39.753Z,97.10
2022-12-23T15:19:22.798Z,97.10
2022-12-23T15:22:00.331Z,98.00
2022-12-23T15:24:33.518Z,98.50
2022-12-23T15:27:25.908Z,96.76
2022-12-23T15:29:54.423Z,97.02
2022-12-23T15:32:25.605Z,95.45
2022-12-23T15:34:55.759Z,95.98
2022-12-23T15:37:27.597Z,96.74
2022-12-23T15:40:03.348Z,96.04
2022-12-23T15:42:38.548Z,95.81
2022-12-23T15:45:30.866Z,97.61
2022-12-23T15:47:58.745Z,96.55
2022-12-23T15:50:26.962Z,97.60
2022-12-23T15:52:57.319Z,97.54
2022-12-23T15:55:29.151Z,97.29
2022-12-23T15:57:57.925Z,97.43
2022-12-23T16:00:30.334Z,99.50
2022-12-23T16:03:01.019Z,99.10
2022-12-23T16:05:32.147Z,98.89
2022-12-23T16:08:28.930Z,97.29
2022-12-23T16:11:04.309Z,97.95
2022-12-23T16:13:32.378Z,96.37
2022-12-23T16:16:19.911Z,95.93
2022-12-23T16:18:48.198Z,97.02
2022-12-23T16:21:16.573Z,96.09
2022-12-23T16:23:51.524Z,95.92
2022-12-23T16:26:20.164Z,96.24
2022-12-23T16:28:51.346Z,95.36
2022-12-23T16:31:21.850Z,94.09
2022-12-23T16:33:51.575Z,96.42
2022-12-23T16:36:23.639Z,97.46
2022-12-23T16:38:53.261Z,97.77
2022-12-23T16:41:21.516Z,99.79
2022-12-23T16:43:52.501Z,99.09
2022-12-23T16:46:23.476Z,99.09
2022-12-23T16:48:53.433Z,99.50
2022-12-23T16:51:24.538Z,100.00
2022-12-23T16:53:55.327Z,99.09
2022-12-23T16:56:25.364Z,99.31
2022-12-23T16:58:53.398Z,98.97
2022-12-23T17:01:25.353Z,100.00
2022-12-23T17:03:53.716Z,100.00
2022-12-23T17:06:22.066Z,100.00
2022-12-23T17:08:50.003Z,100.00
2022-12-23T17:11:19.839Z,100.00
2022-12-23T17:13:48.355Z,100.00
2022-12-23T17:16:19.937Z,100.00
2022-12-23T17:18:49.556Z,100.00
2022-12-23T17:21:21.950Z,100.00
2022-12-23T17:23:50.432Z,98.96
2022-12-23T17:26:18.261Z,97.97
2022-12-23T17:28:46.723Z,96.13
2022-12-23T17:31:18.099Z,100.00
2022-12-23T17:33:50.319Z,100.00
2022-12-23T17:36:18.500Z,99.96
2022-12-23T17:38:46.305Z,100.00
2022-12-23T17:41:28.075Z,100.00
2022-12-23T17:43:56.501Z,99.21
2022-12-23T17:46:24.833Z,100.00
2022-12-23T17:48:54.570Z,100.00
2022-12-23T17:51:24.207Z,100.00
2022-12-23T17:53:57.739Z,100.00
2022-12-23T17:56:28.772Z,100.00
2022-12-23T17:58:56.596Z,100.00
2022-12-23T18:01:26.986Z,100.00
2022-12-23T18:03:57.843Z,100.00
2022-12-23T18:06:27.517Z,100.00
2022-12-23T18:08:56.958Z,100.00
2022-12-23T18:11:31.109Z,99.64
2022-12-23T18:13:58.949Z,98.72
2022-12-23T18:16:26.812Z,98.89
2022-12-23T18:18:56.073Z,100.00
2022-12-23T18:21:25.948Z,100.00
2022-12-23T18:23:55.801Z,100.00
2022-12-23T18:26:23.669Z,100.00
2022-12-23T18:28:52.727Z,99.40
2022-12-23T18:31:23.162Z,97.54
2022-12-23T18:33:51.710Z,99.48
2022-12-23T18:36:24.984Z,99.05
2022-12-23T18:38:53.387Z,100.00
2022-12-23T18:41:21.732Z,100.00
2022-12-23T18:43:49.515Z,100.00
2022-12-23T18:46:17.470Z,99.50
2022-12-23T18:48:45.231Z,100.00
2022-12-23T18:51:15.152Z,100.00
2022-12-23T18:53:44.559Z,100.00
2022-12-23T18:56:13.996Z,100.00
2022-12-23T18:58:41.789Z,100.00
2022-12-23T19:01:12.631Z,98.94
2022-12-23T19:03:40.551Z,100.00
2022-12-23T19:06:09.670Z,100.00
2022-12-23T19:08:38.595Z,100.00
2022-12-23T19:11:12.641Z,100.00
2022-12-23T19:13:40.475Z,100.00
2022-12-23T19:16:08.564Z,100.00
2022-12-23T19:18:36.327Z,100.00
2022-12-23T19:21:05.365Z,100.00
2022-12-23T19:23:33.207Z,100.00
2022-12-23T19:26:01.123Z,100.00
2022-12-23T19:28:30.255Z,100.00
2022-12-23T19:30:58.126Z,100.00
2022-12-23T19:33:25.989Z,100.00
2022-12-23T19:35:53.747Z,100.00
2022-12-23T19:38:21.541Z,100.00
2022-12-23T19:40:58.357Z,100.00
2022-12-23T19:43:26.221Z,100.00
2022-12-23T19:45:59.891Z,100.00
2022-12-23T19:48:28.194Z,100.00
2022-12-23T19:50:59.306Z,100.00
2022-12-23T19:53:27.885Z,100.00
2022-12-23T19:56:00.127Z,100.00
2022-12-23T19:58:28.187Z,100.00
2022-12-23T20:01:08.264Z,100.00
2022-12-23T20:03:36.621Z,100.00
2022-12-23T20:06:06.465Z,100.00
2022-12-23T20:08:34.961Z,100.00
2022-12-23T20:11:07.567Z,100.00
2022-12-23T20:13:36.035Z,100.00
2022-12-23T20:16:04.699Z,100.00
2022-12-23T20:18:33.999Z,100.00
2022-12-23T20:21:02.459Z,100.00
2022-12-23T20:23:33.376Z,100.00
2022-12-23T20:26:01.105Z,100.00
2022-12-23T20:28:29.339Z,100.00
2022-12-23T20:31:02.374Z,100.00
2022-12-23T20:33:30.198Z,100.00
2022-12-23T20:35:59.356Z,100.00
2022-12-23T20:38:27.150Z,100.00
2022-12-23T20:40:54.944Z,100.00
2022-12-23T20:43:22.712Z,100.00
2022-12-23T20:45:52.058Z,100.00
2022-12-23T20:48:21.711Z,100.00
2022-12-23T20:50:49.710Z,100.00
2022-12-23T20:53:18.808Z,100.00
2022-12-23T20:55:46.495Z,100.00
2022-12-23T20:58:31.910Z,100.00
2022-12-23T21:01:09.199Z,100.00
2022-12-23T21:03:37.319Z,100.00
2022-12-23T21:06:05.611Z,100.00
2022-12-23T21:08:35.481Z,100.00
2022-12-23T21:11:03.598Z,100.00
2022-12-23T21:13:31.628Z,100.00
2022-12-23T21:16:01.915Z,100.00
2022-12-23T21:18:31.104Z,100.00
2022-12-23T21:21:00.896Z,100.00
2022-12-23T21:23:29.374Z,100.00
2022-12-23T21:26:13.890Z,100.00
2022-12-23T21:28:43.024Z,100.00
2022-12-23T21:31:11.206Z,100.00
2022-12-23T21:33:40.316Z,100.00
2022-12-23T21:36:09.293Z,100.00
2022-12-23T21:38:38.767Z,100.00
2022-12-23T21:41:10.098Z,100.00
2022-12-23T21:43:39.240Z,100.00
2022-12-23T21:46:08.875Z,100.00
2022-12-23T21:48:38.259Z,100.00
2022-12-23T21:51:08.124Z,100.00
2022-12-23T21:53:36.218Z,100.00
2022-12-23T21:56:05.614Z,100.00
2022-12-23T21:58:34.397Z,100.00
2022-12-23T22:01:07.728Z,100.00
2022-12-23T22:03:35.634Z,100.00
2022-12-23T22:06:10.363Z,100.00
2022-12-23T22:08:38.671Z,100.00
2022-12-23T22:11:08.381Z,100.00
2022-12-23T22:13:36.866Z,100.00
2022-12-23T22:16:10.511Z,100.00
2022-12-23T22:18:38.782Z,100.00
2022-12-23T22:21:07.151Z,100.00
2022-12-23T22:23:34.920Z,100.00
2022-12-23T22:26:02.669Z,100.00
2022-12-23T22:28:32.160Z,100.00
2022-12-23T22:31:03.280Z,100.00
2022-12-23T22:33:32.605Z,100.00
2022-12-23T22:36:00.586Z,100.00
2022-12-23T22:38:28.347Z,100.00
2022-12-23T22:40:56.076Z,100.00
2022-12-23T22:43:24.035Z,100.00
2022-12-23T22:45:57.017Z,100.00
2022-12-23T22:48:25.028Z,100.00
2022-12-23T22:51:02.896Z,100.00
2022-12-23T22:53:30.952Z,100.00
2022-12-23T22:55:59.500Z,100.00
2022-12-23T22:58:27.938Z,100.00
2022-12-23T23:00:56.018Z,100.00
2022-12-23T23:03:24.179Z,100.00
2022-12-23T23:06:02.341Z,100.00
2022-12-23T23:08:30.970Z,100.00
2022-12-23T23:10:59.796Z,100.00
2022-12-23T23:13:30.586Z,100.00
2022-12-23T23:15:59.663Z,100.00
2022-12-23T23:18:28.323Z,100.00
2022-12-23T23:20:56.565Z,100.00
2022-12-23T23:23:25.702Z,100.00
2022-12-23T23:25:53.522Z,100.00
2022-12-23T23:28:21.243Z,100.00
2022-12-23T23:30:52.739Z,100.00
2022-12-23T23:33:31.500Z,100.00
2022-12-23T23:36:00.255Z,100.00
2022-12-23T23:38:29.346Z,100.00
2022-12-23T23:40:58.536Z,100.00
2022-12-23T23:43:26.522Z,100.00
2022-12-23T23:45:54.445Z,100.00
2022-12-23T23:48:22.555Z,100.00
2022-12-23T23:50:50.297Z,100.00
2022-12-23T23:53:18.996Z,100.00
2022-12-23T23:55:48.065Z,100.00
2022-12-23T23:58:15.757Z,100.00
